Pierrefonds, Canada
Current Conditions -  °F | °C
As of 8:51 AM on Sunday 23 Nov 2014 (Local Time) from CYUL Reporting Station
Haze Haze  
Wind Chill: 35°   Ceiling: 400
Heat Index: 39°   Visibility: 3mi
Dew Point: 37°   Wind: 6mph
Humidity: 93%   Direction: 220°SW
Pressure: 30.04"   Gusts: NA
Location:  45.47°N, 73.88°W
Report Text: CYUL 231351Z 22005KT 3SM BR OVC004 04/03 A3004 RMK ST8 SLP173
Loading
Personal Weather Stations






























Interactive Weather Map New forecast layout! Learn more

10-Day Weather Forecast

Advertisements
Track Severe Weather on mobile